createdAt,value
2023-04-30T00:00:32.025Z,5.60
2023-04-30T00:01:54.197Z,5.50
2023-04-30T00:03:16.354Z,5.50
2023-04-30T00:04:38.492Z,5.50
2023-04-30T00:06:00.652Z,5.50
2023-04-30T00:07:22.798Z,5.50
2023-04-30T00:08:44.818Z,5.40
2023-04-30T00:10:07.411Z,5.40
2023-04-30T00:11:29.578Z,5.40
2023-04-30T00:12:51.620Z,5.30
2023-04-30T00:14:13.632Z,5.30
2023-04-30T00:15:36.145Z,5.30
2023-04-30T00:16:58.192Z,5.30
2023-04-30T00:18:20.253Z,5.20
2023-04-30T00:19:42.716Z,5.20
2023-04-30T00:21:05.101Z,5.20
2023-04-30T00:22:27.197Z,5.20
2023-04-30T00:23:49.229Z,5.20
2023-04-30T00:25:11.386Z,5.10
2023-04-30T00:26:33.426Z,5.10
2023-04-30T00:27:55.825Z,5.10
2023-04-30T00:29:17.853Z,5.10
2023-04-30T00:30:39.872Z,5.00
2023-04-30T00:32:01.914Z,5.00
2023-04-30T00:33:23.969Z,5.00
2023-04-30T00:34:46.041Z,5.00
2023-04-30T00:36:08.188Z,5.00
2023-04-30T00:37:30.252Z,5.00
2023-04-30T00:38:52.258Z,4.90
2023-04-30T00:40:14.631Z,4.90
2023-04-30T00:41:37.140Z,4.90
2023-04-30T00:42:59.176Z,4.90
2023-04-30T00:44:21.226Z,4.90
2023-04-30T00:45:43.355Z,4.80
2023-04-30T00:47:05.473Z,4.80
2023-04-30T00:48:28.050Z,4.80
2023-04-30T00:49:50.048Z,4.80
2023-04-30T00:51:12.222Z,4.80
2023-04-30T00:52:34.431Z,4.80
2023-04-30T00:53:56.801Z,4.80
2023-04-30T00:55:19.005Z,4.80
2023-04-30T00:56:41.306Z,4.70
2023-04-30T00:58:03.359Z,4.70
2023-04-30T00:59:25.493Z,4.70
2023-04-30T01:00:48.824Z,4.70
2023-04-30T01:02:11.114Z,4.70
2023-04-30T01:03:33.400Z,4.70
2023-04-30T01:04:56.437Z,4.70
2023-04-30T01:06:18.528Z,4.70
2023-04-30T01:07:46.141Z,4.60
2023-04-30T01:09:08.242Z,4.60
2023-04-30T01:10:36.109Z,4.60
2023-04-30T01:12:06.832Z,4.60
2023-04-30T01:13:53.476Z,4.60
2023-04-30T01:15:43.039Z,4.60
2023-04-30T01:17:20.449Z,4.60
2023-04-30T01:18:49.297Z,4.50
2023-04-30T01:20:12.815Z,4.50
2023-04-30T01:21:39.092Z,4.50
2023-04-30T01:23:38.266Z,4.50
2023-04-30T01:25:26.517Z,4.50
2023-04-30T01:27:29.374Z,4.40
2023-04-30T01:28:54.427Z,4.40
2023-04-30T01:30:18.447Z,4.40
2023-04-30T01:31:43.913Z,4.40
2023-04-30T01:33:06.158Z,4.40
2023-04-30T01:34:28.281Z,4.30
2023-04-30T01:36:20.838Z,4.30
2023-04-30T01:38:09.885Z,4.30
2023-04-30T01:40:27.636Z,4.30
2023-04-30T01:42:14.667Z,4.20
2023-04-30T01:44:14.649Z,4.20
2023-04-30T01:45:42.996Z,4.20
2023-04-30T01:47:12.869Z,4.20
2023-04-30T01:48:52.643Z,4.10
2023-04-30T01:50:52.041Z,4.10
2023-04-30T01:52:41.903Z,4.10
2023-04-30T01:54:16.260Z,4.00
2023-04-30T01:55:44.730Z,4.00
2023-04-30T01:57:09.982Z,4.00
2023-04-30T01:58:32.540Z,4.00
2023-04-30T01:59:54.884Z,4.00
2023-04-30T02:01:30.977Z,4.00
2023-04-30T02:02:53.378Z,3.90
2023-04-30T02:04:15.962Z,3.90
2023-04-30T02:05:38.007Z,3.90
2023-04-30T02:07:01.059Z,3.90
2023-04-30T02:08:23.061Z,3.90
2023-04-30T02:09:45.043Z,3.90
2023-04-30T02:11:07.062Z,3.80
2023-04-30T02:12:30.158Z,3.80
2023-04-30T02:13:52.142Z,3.80
2023-04-30T02:15:15.138Z,3.80
2023-04-30T02:16:37.245Z,3.80
2023-04-30T02:17:59.376Z,3.80
2023-04-30T02:19:21.428Z,3.80
2023-04-30T02:20:43.697Z,3.70
2023-04-30T02:22:05.743Z,3.70
2023-04-30T02:23:27.758Z,3.70
2023-04-30T02:24:50.077Z,3.70
2023-04-30T02:26:12.099Z,3.70
2023-04-30T02:27:34.761Z,3.70
2023-04-30T02:28:56.843Z,3.60
2023-04-30T02:30:20.787Z,3.60
2023-04-30T02:31:42.920Z,3.60
2023-04-30T02:33:05.297Z,3.60
2023-04-30T02:34:27.417Z,3.60
2023-04-30T02:35:49.443Z,3.60
2023-04-30T02:37:11.878Z,3.60
2023-04-30T02:38:33.900Z,3.60
2023-04-30T02:39:56.520Z,3.50
2023-04-30T02:41:18.742Z,3.50
2023-04-30T02:42:40.798Z,3.50
2023-04-30T02:44:03.153Z,3.50
2023-04-30T02:45:25.370Z,3.50
2023-04-30T02:46:47.410Z,3.50
2023-04-30T02:48:09.502Z,3.50
2023-04-30T02:49:31.597Z,3.50
2023-04-30T02:50:53.592Z,3.40
2023-04-30T02:52:15.714Z,3.40
2023-04-30T02:53:37.738Z,3.40
2023-04-30T02:54:59.759Z,3.40
2023-04-30T02:56:21.771Z,3.40
2023-04-30T02:57:43.874Z,3.40
2023-04-30T02:59:06.254Z,3.40
2023-04-30T03:00:28.338Z,3.40
2023-04-30T03:01:50.442Z,3.40
2023-04-30T03:03:12.610Z,3.40
2023-04-30T03:04:34.702Z,3.40
2023-04-30T03:05:59.412Z,3.40
2023-04-30T03:07:21.923Z,3.40
2023-04-30T03:08:43.977Z,3.30
2023-04-30T03:10:06.744Z,3.30
2023-04-30T03:11:28.773Z,3.30
2023-04-30T03:12:50.878Z,3.30
2023-04-30T03:14:12.916Z,3.30
2023-04-30T03:15:34.984Z,3.30
2023-04-30T03:16:59.433Z,3.30
2023-04-30T03:18:21.498Z,3.30
2023-04-30T03:19:43.528Z,3.30
2023-04-30T03:21:05.736Z,3.30
2023-04-30T03:22:27.739Z,3.30
2023-04-30T03:23:49.745Z,3.30
2023-04-30T03:25:11.811Z,3.30
2023-04-30T03:26:33.909Z,3.30
2023-04-30T03:27:56.057Z,3.30
2023-04-30T03:29:18.318Z,3.30
2023-04-30T03:30:40.521Z,3.20
2023-04-30T03:32:02.784Z,3.30
2023-04-30T03:33:25.194Z,3.30
2023-04-30T03:34:47.306Z,3.30
2023-04-30T03:36:09.370Z,3.30
2023-04-30T03:37:31.778Z,3.20
2023-04-30T03:38:53.872Z,3.30
2023-04-30T03:40:15.973Z,3.30
2023-04-30T03:41:38.046Z,3.30
2023-04-30T03:43:00.322Z,3.30
2023-04-30T03:44:23.001Z,3.30
2023-04-30T03:45:45.103Z,3.30
2023-04-30T03:47:07.170Z,3.30
2023-04-30T03:48:29.332Z,3.40
2023-04-30T03:49:55.343Z,3.40
2023-04-30T03:51:20.457Z,3.40
2023-04-30T03:52:42.538Z,3.40
2023-04-30T03:54:04.572Z,3.40
2023-04-30T03:55:26.883Z,3.40
2023-04-30T03:56:48.974Z,3.50
2023-04-30T03:58:11.180Z,3.50
2023-04-30T03:59:33.673Z,3.60
2023-04-30T04:00:55.823Z,3.70
2023-04-30T04:02:17.898Z,3.70
2023-04-30T04:03:40.111Z,3.80
2023-04-30T04:05:02.957Z,3.90
2023-04-30T04:06:24.985Z,3.90
2023-04-30T04:07:47.197Z,4.00
2023-04-30T04:09:09.243Z,4.10
2023-04-30T04:10:31.808Z,4.10
2023-04-30T04:11:53.821Z,4.20
2023-04-30T04:13:15.859Z,4.20
2023-04-30T04:14:38.038Z,4.40
2023-04-30T04:16:00.129Z,4.70
2023-04-30T04:17:22.291Z,5.30
2023-04-30T04:18:44.538Z,6.10
2023-04-30T04:20:07.580Z,6.90
2023-04-30T04:21:29.591Z,7.50
2023-04-30T04:22:51.804Z,7.80
2023-04-30T04:24:13.836Z,8.00
2023-04-30T04:25:35.867Z,8.30
2023-04-30T04:26:58.070Z,8.80
2023-04-30T04:28:20.172Z,9.20
2023-04-30T04:29:42.160Z,9.60
2023-04-30T04:31:04.209Z,10.20
2023-04-30T04:32:27.318Z,10.80
2023-04-30T04:33:49.491Z,11.20
2023-04-30T04:35:11.546Z,11.70
2023-04-30T04:36:34.220Z,12.00
2023-04-30T04:37:56.372Z,12.20
2023-04-30T04:39:18.429Z,12.40
2023-04-30T04:40:41.309Z,12.60
2023-04-30T04:42:04.907Z,12.90
2023-04-30T04:43:27.191Z,13.20
2023-04-30T04:44:49.226Z,13.40
2023-04-30T04:46:13.739Z,13.60
2023-04-30T04:47:36.765Z,13.70
2023-04-30T04:48:59.098Z,13.90
2023-04-30T04:50:21.216Z,14.20
2023-04-30T04:51:43.232Z,14.60
2023-04-30T04:53:05.818Z,14.90
2023-04-30T04:54:28.200Z,15.30
2023-04-30T04:55:50.263Z,15.60
2023-04-30T04:57:12.315Z,15.80
2023-04-30T04:58:34.544Z,16.00
2023-04-30T04:59:56.658Z,16.30
2023-04-30T05:01:18.948Z,16.60
2023-04-30T05:02:41.167Z,16.80
2023-04-30T05:04:03.435Z,17.00
2023-04-30T05:05:25.763Z,17.20
2023-04-30T05:06:48.114Z,17.30
2023-04-30T05:08:10.389Z,17.30
2023-04-30T05:09:32.429Z,17.30
2023-04-30T05:10:54.700Z,17.20
2023-04-30T05:12:16.713Z,16.80
2023-04-30T05:13:38.851Z,16.70
2023-04-30T05:15:01.047Z,16.40
2023-04-30T05:16:23.070Z,16.10
2023-04-30T05:17:45.249Z,15.70
2023-04-30T05:19:09.662Z,15.60
2023-04-30T05:20:31.731Z,15.40
2023-04-30T05:21:53.817Z,15.20
2023-04-30T05:23:16.334Z,15.10
2023-04-30T05:24:38.586Z,14.90
2023-04-30T05:26:00.770Z,14.70
2023-04-30T05:27:22.797Z,14.50
2023-04-30T05:28:45.259Z,14.00
2023-04-30T05:30:09.348Z,13.50
2023-04-30T05:31:32.387Z,13.10
2023-04-30T05:32:54.671Z,13.10
2023-04-30T05:34:16.945Z,13.00
2023-04-30T05:35:39.097Z,13.00
2023-04-30T05:37:01.605Z,13.10
2023-04-30T05:38:23.904Z,13.20
2023-04-30T05:39:46.536Z,13.20
2023-04-30T05:41:11.611Z,13.10
2023-04-30T05:42:33.722Z,12.90
2023-04-30T05:43:55.933Z,12.60
2023-04-30T05:45:18.111Z,12.50
2023-04-30T05:46:40.290Z,12.40
2023-04-30T05:48:02.428Z,12.50
2023-04-30T05:49:25.144Z,12.70
2023-04-30T05:50:47.259Z,12.90
2023-04-30T05:52:09.305Z,13.20
2023-04-30T05:53:31.761Z,13.20
2023-04-30T05:54:54.013Z,13.00
2023-04-30T05:56:16.119Z,12.70
2023-04-30T05:57:38.311Z,12.30
2023-04-30T05:59:00.465Z,12.10
2023-04-30T06:00:22.758Z,11.90
2023-04-30T06:01:44.969Z,11.70
2023-04-30T06:03:08.120Z,11.70
2023-04-30T06:04:30.852Z,11.50
2023-04-30T06:05:53.020Z,11.40
2023-04-30T06:07:15.162Z,11.30
2023-04-30T06:08:37.311Z,11.10
2023-04-30T06:09:59.337Z,11.10
2023-04-30T06:11:22.080Z,10.70
2023-04-30T06:12:44.198Z,10.40
2023-04-30T06:14:06.384Z,9.90
2023-04-30T06:15:28.479Z,9.40
2023-04-30T06:16:51.090Z,9.10
2023-04-30T06:18:14.217Z,8.80
2023-04-30T06:19:36.619Z,8.60
2023-04-30T06:20:58.858Z,8.40
2023-04-30T06:22:20.970Z,8.30
2023-04-30T06:23:42.988Z,8.20
2023-04-30T06:25:05.570Z,8.20
2023-04-30T06:26:27.764Z,8.10
2023-04-30T06:27:51.608Z,7.90
2023-04-30T06:29:13.657Z,7.90
2023-04-30T06:30:36.571Z,7.90
2023-04-30T06:31:58.660Z,7.90
2023-04-30T06:33:21.314Z,7.90
2023-04-30T06:34:43.536Z,7.90
2023-04-30T06:36:06.199Z,7.90
2023-04-30T06:37:28.297Z,7.90
2023-04-30T06:38:50.404Z,8.00
2023-04-30T06:40:12.513Z,8.00
2023-04-30T06:41:34.614Z,8.00
2023-04-30T06:42:56.685Z,8.10
2023-04-30T06:44:19.215Z,8.30
2023-04-30T06:45:41.407Z,8.20
2023-04-30T06:47:03.528Z,8.10
2023-04-30T06:48:25.873Z,8.00
2023-04-30T06:49:47.934Z,8.10
2023-04-30T06:51:10.823Z,8.30
2023-04-30T06:52:33.209Z,8.40
2023-04-30T06:53:56.119Z,8.60
2023-04-30T06:55:18.375Z,8.70
2023-04-30T06:56:40.379Z,8.80
2023-04-30T06:58:02.408Z,8.90
2023-04-30T06:59:24.482Z,9.10
2023-04-30T07:00:46.573Z,9.30
2023-04-30T07:02:08.688Z,9.40
2023-04-30T07:03:30.839Z,9.40
2023-04-30T07:04:53.117Z,9.20
2023-04-30T07:06:15.516Z,9.00
2023-04-30T07:07:37.857Z,8.90
2023-04-30T07:08:59.911Z,8.70
2023-04-30T07:10:22.178Z,8.70
2023-04-30T07:11:45.144Z,8.70
2023-04-30T07:13:08.245Z,8.80
2023-04-30T07:14:30.381Z,8.90
2023-04-30T07:15:52.738Z,8.90
2023-04-30T07:17:14.971Z,8.90
2023-04-30T07:18:38.030Z,8.80
2023-04-30T07:20:00.405Z,8.50
2023-04-30T07:21:22.653Z,8.40
2023-04-30T07:22:46.072Z,8.50
2023-04-30T07:24:08.239Z,8.60
2023-04-30T07:25:30.283Z,8.80
2023-04-30T07:26:52.362Z,9.00
2023-04-30T07:28:14.417Z,9.20
2023-04-30T07:29:37.280Z,9.50
2023-04-30T07:31:00.285Z,9.70
2023-04-30T07:32:22.849Z,9.80
2023-04-30T07:33:45.336Z,9.80
2023-04-30T07:35:07.765Z,9.80
2023-04-30T07:36:29.846Z,9.40
2023-04-30T07:37:51.950Z,9.40
2023-04-30T07:39:14.028Z,9.40
2023-04-30T07:40:36.783Z,9.40
2023-04-30T07:41:58.911Z,9.50
2023-04-30T07:43:21.067Z,9.50
2023-04-30T07:44:43.121Z,9.30
2023-04-30T07:46:05.254Z,9.30
2023-04-30T07:47:27.409Z,9.40
2023-04-30T07:48:49.464Z,9.40
2023-04-30T07:50:12.323Z,9.40
2023-04-30T07:51:34.428Z,9.40
2023-04-30T07:52:56.462Z,9.40
2023-04-30T07:54:18.475Z,9.40
2023-04-30T07:55:40.919Z,9.40
2023-04-30T07:57:03.605Z,9.50
2023-04-30T07:58:25.860Z,9.40
2023-04-30T07:59:50.483Z,9.40
2023-04-30T08:01:15.308Z,9.40
2023-04-30T08:02:37.581Z,9.50
2023-04-30T08:03:59.835Z,9.50
2023-04-30T08:05:22.001Z,9.70
2023-04-30T08:06:44.087Z,9.80
2023-04-30T08:08:06.217Z,9.80
2023-04-30T08:09:28.225Z,9.70
2023-04-30T08:10:50.343Z,9.70
2023-04-30T08:12:12.385Z,9.60
2023-04-30T08:13:34.439Z,9.40
2023-04-30T08:15:05.068Z,9.40
2023-04-30T08:16:27.159Z,9.50
2023-04-30T08:17:50.936Z,9.70
2023-04-30T08:19:13.202Z,9.90
2023-04-30T08:20:36.563Z,10.00
2023-04-30T08:22:01.225Z,10.10
2023-04-30T08:23:23.320Z,10.30
2023-04-30T08:24:45.480Z,10.50
2023-04-30T08:26:07.564Z,10.50
2023-04-30T08:27:31.444Z,10.30
2023-04-30T08:28:53.527Z,10.20
2023-04-30T08:30:15.926Z,10.20
2023-04-30T08:31:38.082Z,10.20
2023-04-30T08:33:00.485Z,10.10
2023-04-30T08:34:22.558Z,10.00
2023-04-30T08:35:45.574Z,10.10
2023-04-30T08:37:07.830Z,10.10
2023-04-30T08:38:29.886Z,10.20
2023-04-30T08:39:52.009Z,10.40
2023-04-30T08:41:18.581Z,10.40
2023-04-30T08:42:46.387Z,10.60
2023-04-30T08:44:12.333Z,10.90
2023-04-30T08:45:36.985Z,11.10
2023-04-30T08:47:00.016Z,11.20
2023-04-30T08:48:24.891Z,11.10
2023-04-30T08:49:47.591Z,11.10
2023-04-30T08:51:09.772Z,11.40
2023-04-30T08:52:38.079Z,11.70
2023-04-30T08:54:00.472Z,12.00
2023-04-30T08:55:22.950Z,12.00
2023-04-30T08:56:47.930Z,11.70
2023-04-30T08:58:12.868Z,11.20
2023-04-30T08:59:34.984Z,10.80
2023-04-30T09:00:59.799Z,10.60
2023-04-30T09:02:22.040Z,10.50
2023-04-30T09:03:44.380Z,10.50
2023-04-30T09:05:12.024Z,10.70
2023-04-30T09:06:34.209Z,10.90
2023-04-30T09:09:29.399Z,11.20
2023-04-30T09:10:51.427Z,11.20
2023-04-30T09:12:18.462Z,11.10
2023-04-30T09:13:41.426Z,11.00
2023-04-30T09:15:04.822Z,11.00
2023-04-30T09:16:31.166Z,11.20
2023-04-30T09:18:07.871Z,11.30
2023-04-30T09:19:30.997Z,11.50
2023-04-30T09:20:59.096Z,11.70
2023-04-30T09:22:23.652Z,11.90
2023-04-30T09:23:56.108Z,11.80
2023-04-30T09:25:18.378Z,11.80
2023-04-30T09:26:40.702Z,11.70
2023-04-30T09:28:13.634Z,11.40
2023-04-30T09:29:38.617Z,11.40
2023-04-30T09:31:00.893Z,11.50
2023-04-30T09:32:22.994Z,11.50
2023-04-30T09:33:47.742Z,11.60
2023-04-30T09:35:29.725Z,11.70
2023-04-30T09:36:54.794Z,12.00
2023-04-30T09:38:30.713Z,12.00
2023-04-30T09:39:55.442Z,12.10
2023-04-30T09:41:23.664Z,12.10
2023-04-30T09:43:04.234Z,12.20
2023-04-30T09:44:31.445Z,12.10
2023-04-30T09:45:53.692Z,11.90
2023-04-30T09:47:19.080Z,11.60
2023-04-30T09:48:44.970Z,11.60
2023-04-30T09:50:07.564Z,11.70
2023-04-30T09:51:29.694Z,11.70
2023-04-30T09:53:04.701Z,11.70
2023-04-30T09:54:31.667Z,11.80
2023-04-30T09:55:55.665Z,11.90
2023-04-30T09:57:23.679Z,12.00
2023-04-30T09:58:50.008Z,12.00
2023-04-30T10:00:12.668Z,12.10
2023-04-30T10:01:39.720Z,12.10
2023-04-30T10:03:10.814Z,12.30
2023-04-30T10:04:38.030Z,12.40
2023-04-30T10:06:00.936Z,12.70
2023-04-30T10:07:26.388Z,13.00
2023-04-30T10:08:53.827Z,13.00
2023-04-30T10:10:16.802Z,12.90
2023-04-30T10:11:42.165Z,12.90
2023-04-30T10:13:07.896Z,13.10
2023-04-30T10:14:34.254Z,13.50
2023-04-30T10:15:59.954Z,13.80
2023-04-30T10:17:26.697Z,13.90
2023-04-30T10:18:51.980Z,13.80
2023-04-30T10:20:15.463Z,13.60
2023-04-30T10:21:42.328Z,13.30
2023-04-30T10:23:05.618Z,13.30
2023-04-30T10:24:28.035Z,13.30
2023-04-30T10:25:51.151Z,13.40
2023-04-30T10:27:14.083Z,13.30
2023-04-30T10:28:37.330Z,12.90
2023-04-30T10:30:00.453Z,12.80
2023-04-30T10:31:23.418Z,12.90
2023-04-30T10:33:16.847Z,12.90
2023-04-30T10:34:46.607Z,13.00
2023-04-30T10:36:14.813Z,13.30
2023-04-30T10:37:48.513Z,13.30
2023-04-30T10:39:12.829Z,13.50
2023-04-30T10:40:37.130Z,13.70
2023-04-30T10:42:04.201Z,13.90
2023-04-30T10:43:27.257Z,13.90
2023-04-30T10:44:49.840Z,14.20
2023-04-30T10:46:12.236Z,14.50
2023-04-30T10:47:36.480Z,14.70
2023-04-30T10:49:00.139Z,14.80
2023-04-30T10:50:23.937Z,14.90
2023-04-30T10:51:51.696Z,14.50
2023-04-30T10:53:17.652Z,13.80
2023-04-30T10:54:41.507Z,13.40
2023-04-30T10:56:09.259Z,13.20
2023-04-30T10:57:31.846Z,13.00
2023-04-30T10:58:53.971Z,13.00
2023-04-30T11:00:19.731Z,13.20
2023-04-30T11:01:58.852Z,13.50
2023-04-30T11:03:22.552Z,13.60
2023-04-30T11:05:06.686Z,13.40
2023-04-30T11:06:54.649Z,13.10
2023-04-30T11:08:17.030Z,12.80
2023-04-30T11:09:39.197Z,12.80
2023-04-30T11:11:01.761Z,13.10
2023-04-30T11:12:30.371Z,13.40
2023-04-30T11:14:01.102Z,13.60
2023-04-30T11:15:36.642Z,13.60
2023-04-30T11:17:00.565Z,13.50
2023-04-30T11:18:22.782Z,13.60
2023-04-30T11:19:51.654Z,13.90
2023-04-30T11:21:14.270Z,14.20
2023-04-30T11:22:36.910Z,14.20
2023-04-30T11:24:04.747Z,14.10
2023-04-30T11:25:39.191Z,14.00
2023-04-30T11:27:08.324Z,13.90
2023-04-30T11:28:34.702Z,13.60
2023-04-30T11:29:58.380Z,13.40
2023-04-30T11:31:21.767Z,13.30
2023-04-30T11:32:49.305Z,13.40
2023-04-30T11:34:12.546Z,13.60
2023-04-30T11:35:35.350Z,13.70
2023-04-30T11:37:01.019Z,13.60
2023-04-30T11:39:38.264Z,13.00
2023-04-30T11:41:01.457Z,12.80
2023-04-30T11:42:23.589Z,12.50
2023-04-30T11:43:45.757Z,12.20
2023-04-30T11:45:13.025Z,12.00
2023-04-30T11:46:35.307Z,12.10
2023-04-30T11:47:57.901Z,12.40
2023-04-30T11:49:23.356Z,12.70
2023-04-30T11:50:45.661Z,12.90
2023-04-30T11:52:09.463Z,13.00
2023-04-30T11:53:31.804Z,13.30
2023-04-30T11:54:56.012Z,13.50
2023-04-30T11:56:24.407Z,13.40
2023-04-30T11:57:49.308Z,13.20
2023-04-30T11:59:11.541Z,12.90
2023-04-30T12:00:33.595Z,12.70
2023-04-30T12:01:55.936Z,12.80
2023-04-30T12:03:18.213Z,12.80
2023-04-30T12:04:43.596Z,12.90
2023-04-30T12:06:05.731Z,13.20
2023-04-30T12:07:27.915Z,13.30
2023-04-30T12:08:50.226Z,13.50
2023-04-30T12:10:12.608Z,13.60
2023-04-30T12:11:35.702Z,13.70
2023-04-30T12:12:57.770Z,13.80
2023-04-30T12:14:24.675Z,13.50
2023-04-30T12:15:59.376Z,13.50
2023-04-30T12:17:34.491Z,13.10
2023-04-30T12:18:56.653Z,12.80
2023-04-30T12:20:21.700Z,12.80
2023-04-30T12:21:46.498Z,13.00
2023-04-30T12:23:08.899Z,13.10
2023-04-30T12:24:30.960Z,13.10
2023-04-30T12:25:53.198Z,13.00
2023-04-30T12:27:15.496Z,13.10
2023-04-30T12:28:37.623Z,13.50
2023-04-30T12:30:08.844Z,13.60
2023-04-30T12:31:34.024Z,13.80
2023-04-30T12:33:00.298Z,13.80
2023-04-30T12:34:27.012Z,14.00
2023-04-30T12:35:52.376Z,14.30
2023-04-30T12:37:17.590Z,14.50
2023-04-30T12:38:44.074Z,14.50
2023-04-30T12:40:08.300Z,14.50
2023-04-30T12:41:30.744Z,14.60
2023-04-30T12:43:04.626Z,14.70
2023-04-30T12:44:28.279Z,14.60
2023-04-30T12:45:52.484Z,14.40
2023-04-30T12:47:16.387Z,14.50
2023-04-30T12:48:45.439Z,14.60
2023-04-30T12:50:12.453Z,14.70
2023-04-30T12:51:41.072Z,14.40
2023-04-30T12:53:04.854Z,14.20
2023-04-30T12:54:28.930Z,14.00
2023-04-30T12:56:12.182Z,13.80
2023-04-30T12:57:34.382Z,13.70
2023-04-30T12:58:56.480Z,13.70
2023-04-30T13:00:18.575Z,13.50
2023-04-30T13:01:46.125Z,13.50
2023-04-30T13:03:08.484Z,13.50
2023-04-30T13:04:30.708Z,13.50
2023-04-30T13:05:53.631Z,13.40
2023-04-30T13:07:15.668Z,13.20
2023-04-30T13:08:49.685Z,13.10
2023-04-30T13:10:19.737Z,12.90
2023-04-30T13:11:41.928Z,13.00
2023-04-30T13:13:04.061Z,13.30
2023-04-30T13:14:26.166Z,13.40
2023-04-30T13:15:48.407Z,13.40
2023-04-30T13:17:13.741Z,13.30
2023-04-30T13:18:35.868Z,13.30
2023-04-30T13:19:57.912Z,13.30
2023-04-30T13:21:21.073Z,13.50
2023-04-30T13:22:43.091Z,13.60
2023-04-30T13:24:05.737Z,13.80
2023-04-30T13:25:27.920Z,13.90
2023-04-30T13:26:50.078Z,14.00
2023-04-30T13:28:12.150Z,14.40
2023-04-30T13:29:34.218Z,14.60
2023-04-30T13:30:56.736Z,14.70
2023-04-30T13:32:20.037Z,14.80
2023-04-30T13:33:42.206Z,15.00
2023-04-30T13:35:04.680Z,15.20
2023-04-30T13:36:27.138Z,15.00
2023-04-30T13:37:49.717Z,14.40
2023-04-30T13:39:11.885Z,13.90
2023-04-30T13:40:34.036Z,13.60
2023-04-30T13:41:56.127Z,13.30
2023-04-30T13:43:18.182Z,13.00
2023-04-30T13:44:40.503Z,12.90
2023-04-30T13:46:02.538Z,12.80
2023-04-30T13:47:24.688Z,12.90
2023-04-30T13:48:51.780Z,13.10
2023-04-30T13:50:13.968Z,13.50
2023-04-30T13:51:36.219Z,13.70
2023-04-30T13:52:59.425Z,13.90
2023-04-30T13:54:21.870Z,13.90
2023-04-30T13:55:44.025Z,14.10
2023-04-30T13:57:06.338Z,14.10
2023-04-30T13:58:28.396Z,13.90
2023-04-30T13:59:50.956Z,13.70
2023-04-30T14:01:14.370Z,13.60
2023-04-30T14:02:36.625Z,13.60
2023-04-30T14:03:59.214Z,13.60
2023-04-30T14:05:21.551Z,13.70
2023-04-30T14:06:43.844Z,13.80
2023-04-30T14:08:06.245Z,13.70
2023-04-30T14:09:29.029Z,13.60
2023-04-30T14:10:51.110Z,13.70
2023-04-30T14:12:13.326Z,13.90
2023-04-30T14:13:37.223Z,14.10
2023-04-30T14:14:59.283Z,14.50
2023-04-30T14:16:22.387Z,14.60
2023-04-30T14:17:44.535Z,14.70
2023-04-30T14:19:06.585Z,14.70
2023-04-30T14:20:28.635Z,14.60
2023-04-30T14:21:50.909Z,14.30
2023-04-30T14:23:13.075Z,13.90
2023-04-30T14:24:36.388Z,13.60
2023-04-30T14:25:58.483Z,13.40
2023-04-30T14:27:21.279Z,13.20
2023-04-30T14:28:43.438Z,13.00
2023-04-30T14:30:06.339Z,13.00
2023-04-30T14:31:28.434Z,13.20
2023-04-30T14:32:50.609Z,13.50
2023-04-30T14:34:13.443Z,13.90
2023-04-30T14:35:35.519Z,14.30
2023-04-30T14:36:59.445Z,14.50
2023-04-30T14:38:21.667Z,14.80
2023-04-30T14:39:43.965Z,15.00
2023-04-30T14:41:07.776Z,15.00
2023-04-30T14:42:29.913Z,14.80
2023-04-30T14:43:52.741Z,14.60
2023-04-30T14:45:15.176Z,14.40
2023-04-30T14:46:37.587Z,14.40
2023-04-30T14:48:00.221Z,14.30
2023-04-30T14:49:23.346Z,14.10
2023-04-30T14:50:45.927Z,14.00
2023-04-30T14:52:07.968Z,13.90
2023-04-30T14:53:30.242Z,13.80
2023-04-30T14:54:52.561Z,13.60
2023-04-30T14:56:14.803Z,13.70
2023-04-30T14:57:37.025Z,14.00
2023-04-30T14:58:59.185Z,14.10
2023-04-30T15:00:21.881Z,14.10
2023-04-30T15:01:44.043Z,14.20
2023-04-30T15:03:06.199Z,14.40
2023-04-30T15:04:28.396Z,14.60
2023-04-30T15:05:51.711Z,14.80
2023-04-30T15:07:14.049Z,14.80
2023-04-30T15:08:36.296Z,14.90
2023-04-30T15:09:58.557Z,15.00
2023-04-30T15:11:20.980Z,15.10
2023-04-30T15:12:43.464Z,15.20
2023-04-30T15:14:05.538Z,14.90
2023-04-30T15:15:29.556Z,14.50
2023-04-30T15:16:51.691Z,14.20
2023-04-30T15:18:15.140Z,14.00
2023-04-30T15:19:37.353Z,13.90
2023-04-30T15:20:59.490Z,13.80
2023-04-30T15:22:22.483Z,13.70
2023-04-30T15:23:45.825Z,13.60
2023-04-30T15:25:08.828Z,13.60
2023-04-30T15:26:31.231Z,13.70
2023-04-30T15:27:53.328Z,13.50
2023-04-30T15:29:15.660Z,13.50
2023-04-30T15:30:38.517Z,13.50
2023-04-30T15:32:01.064Z,13.50
2023-04-30T15:33:27.481Z,13.30
2023-04-30T15:34:49.696Z,13.00
2023-04-30T15:36:11.870Z,12.80
2023-04-30T15:37:34.661Z,12.70
2023-04-30T15:38:56.765Z,12.70
2023-04-30T15:40:19.034Z,12.70
2023-04-30T15:41:41.136Z,12.90
2023-04-30T15:43:03.597Z,12.90
2023-04-30T15:44:25.671Z,13.00
2023-04-30T15:45:50.154Z,13.10
2023-04-30T15:47:12.765Z,13.20
2023-04-30T15:48:36.549Z,13.00
2023-04-30T15:49:58.730Z,13.00
2023-04-30T15:51:20.933Z,13.00
2023-04-30T15:52:43.112Z,12.90
2023-04-30T15:54:07.350Z,12.90
2023-04-30T15:55:29.605Z,12.90
2023-04-30T15:56:51.821Z,12.90
2023-04-30T15:58:13.955Z,12.80
2023-04-30T15:59:36.068Z,12.80
2023-04-30T16:00:58.118Z,12.80
2023-04-30T16:02:21.108Z,12.80
2023-04-30T16:03:43.629Z,12.80
2023-04-30T16:05:06.077Z,12.80
2023-04-30T16:06:32.121Z,12.80
2023-04-30T16:07:54.534Z,12.80
2023-04-30T16:09:19.811Z,12.90
2023-04-30T16:10:42.189Z,13.00
2023-04-30T16:12:04.640Z,13.00
2023-04-30T16:13:26.760Z,12.80
2023-04-30T16:14:48.798Z,12.60
2023-04-30T16:16:11.024Z,12.40
2023-04-30T16:17:33.231Z,12.30
2023-04-30T16:18:55.576Z,12.30
2023-04-30T16:20:17.735Z,12.30
2023-04-30T16:21:40.217Z,12.40
2023-04-30T16:23:04.735Z,12.40
2023-04-30T16:24:27.673Z,12.30
2023-04-30T16:25:49.761Z,12.30
2023-04-30T16:27:11.809Z,12.30
2023-04-30T16:28:35.309Z,12.30
2023-04-30T16:29:57.654Z,12.30
2023-04-30T16:31:22.804Z,12.20
2023-04-30T16:32:45.058Z,12.20
2023-04-30T16:34:11.269Z,12.20
2023-04-30T16:35:33.399Z,12.20
2023-04-30T16:36:55.574Z,12.20
2023-04-30T16:38:17.636Z,12.20
2023-04-30T16:39:40.606Z,12.20
2023-04-30T16:41:02.799Z,12.10
2023-04-30T16:42:25.096Z,12.10
2023-04-30T16:43:47.253Z,12.00
2023-04-30T16:45:09.917Z,12.10
2023-04-30T16:46:32.097Z,12.00
2023-04-30T16:47:54.357Z,12.10
2023-04-30T16:49:16.980Z,12.10
2023-04-30T16:50:39.109Z,12.00
2023-04-30T16:52:02.394Z,12.00
2023-04-30T16:53:24.477Z,11.90
2023-04-30T16:54:46.618Z,11.90
2023-04-30T16:56:08.716Z,11.80
2023-04-30T16:57:31.960Z,11.80
2023-04-30T16:58:54.691Z,11.80
2023-04-30T17:00:17.627Z,11.80
2023-04-30T17:01:39.948Z,11.70
2023-04-30T17:03:02.347Z,11.70
2023-04-30T17:04:24.799Z,11.70
2023-04-30T17:05:47.088Z,11.70
2023-04-30T17:07:09.254Z,11.70
2023-04-30T17:08:31.570Z,11.70
2023-04-30T17:09:53.798Z,11.70
2023-04-30T17:11:20.537Z,11.80
2023-04-30T17:12:42.811Z,11.70
2023-04-30T17:14:04.999Z,11.70
2023-04-30T17:15:27.265Z,11.70
2023-04-30T17:16:49.582Z,11.70
2023-04-30T17:18:13.148Z,11.60
2023-04-30T17:19:35.372Z,11.60
2023-04-30T17:20:57.516Z,11.50
2023-04-30T17:22:20.171Z,11.60
2023-04-30T17:23:42.421Z,11.60
2023-04-30T17:25:04.925Z,11.60
2023-04-30T17:26:27.044Z,11.60
2023-04-30T17:27:49.676Z,11.70
2023-04-30T17:29:11.773Z,11.80
2023-04-30T17:30:34.216Z,11.90
2023-04-30T17:31:56.511Z,11.90
2023-04-30T17:33:18.693Z,12.00
2023-04-30T17:34:42.308Z,12.10
2023-04-30T17:36:04.736Z,12.10
2023-04-30T17:37:27.146Z,12.10
2023-04-30T17:38:49.241Z,12.10
2023-04-30T17:40:11.535Z,12.10
2023-04-30T17:41:33.716Z,12.00
2023-04-30T17:42:55.922Z,11.80
2023-04-30T17:44:18.061Z,11.70
2023-04-30T17:45:40.263Z,11.60
2023-04-30T17:47:02.476Z,11.50
2023-04-30T17:48:24.623Z,11.50
2023-04-30T17:49:46.725Z,11.40
2023-04-30T17:51:09.708Z,11.40
2023-04-30T17:52:33.466Z,11.40
2023-04-30T17:53:59.456Z,11.40
2023-04-30T17:55:21.920Z,11.30
2023-04-30T17:56:44.233Z,11.30
2023-04-30T17:58:10.040Z,11.30
2023-04-30T17:59:32.242Z,11.20
2023-04-30T18:00:56.397Z,11.10
2023-04-30T18:02:18.891Z,10.90
2023-04-30T18:03:42.577Z,10.80
2023-04-30T18:05:04.925Z,10.60
2023-04-30T18:06:28.027Z,10.50
2023-04-30T18:07:50.316Z,10.40
2023-04-30T18:09:12.584Z,10.30
2023-04-30T18:10:34.662Z,10.20
2023-04-30T18:11:58.753Z,10.10
2023-04-30T18:13:22.361Z,10.00
2023-04-30T18:14:44.649Z,10.00
2023-04-30T18:16:07.389Z,9.90